createdAt,value
2014-07-27T00:00:49.863Z,22.38
2014-07-27T00:01:54.849Z,22.28
2014-07-27T00:03:00.133Z,22.2
2014-07-27T00:04:04.822Z,22.07
2014-07-27T00:05:09.496Z,22.1
2014-07-27T00:06:14.186Z,22.23
2014-07-27T00:07:18.859Z,22.24
2014-07-27T00:08:23.549Z,22.16
2014-07-27T00:09:28.238Z,22.2
2014-07-27T00:10:32.911Z,22.23
2014-07-27T00:11:37.604Z,21.75
2014-07-27T00:12:42.293Z,21.76
2014-07-27T00:13:46.966Z,21.9
2014-07-27T00:14:51.657Z,21.87
2014-07-27T00:15:56.643Z,22.03
2014-07-27T00:17:01.333Z,21.94
2014-07-27T00:18:06.022Z,22.09
2014-07-27T00:19:10.695Z,22.2
2014-07-27T00:20:15.384Z,22.23
2014-07-27T00:21:20.059Z,22.32
2014-07-27T00:22:25.046Z,22.19
2014-07-27T00:23:29.735Z,22.18
2014-07-27T00:24:34.722Z,22.08
2014-07-27T00:25:39.394Z,22.1
2014-07-27T00:26:44.382Z,22
2014-07-27T00:27:49.070Z,22.09
2014-07-27T00:28:53.761Z,22.13
2014-07-27T00:29:58.434Z,21.82
2014-07-27T00:31:03.124Z,21.94
2014-07-27T00:32:07.814Z,21.88
2014-07-27T00:33:12.489Z,21.89
2014-07-27T00:34:17.475Z,21.82
2014-07-27T00:35:22.461Z,21.96
2014-07-27T00:36:27.448Z,22.02
2014-07-27T00:37:32.137Z,22.02
2014-07-27T00:38:37.108Z,21.96
2014-07-27T00:39:41.797Z,21.93
2014-07-27T00:40:46.503Z,22.01
2014-07-27T00:41:51.176Z,22.08
2014-07-27T00:42:56.162Z,22.07
2014-07-27T00:44:00.852Z,22.04
2014-07-27T00:45:05.839Z,21.98
2014-07-27T00:46:10.527Z,21.98
2014-07-27T00:47:15.201Z,21.98
2014-07-27T00:48:20.188Z,22.07
2014-07-27T00:49:24.893Z,22.11
2014-07-27T00:50:29.584Z,22.15
2014-07-27T00:51:34.274Z,21.92
2014-07-27T00:52:38.963Z,21.92
2014-07-27T00:53:43.934Z,21.77
2014-07-27T00:54:48.623Z,21.86
2014-07-27T00:55:53.328Z,21.82
2014-07-27T00:56:58.315Z,21.87
2014-07-27T00:58:03.003Z,21.98
2014-07-27T00:59:07.694Z,21.99
2014-07-27T01:00:12.680Z,22.04
2014-07-27T01:01:17.370Z,22.05
2014-07-27T01:02:22.340Z,22.02
2014-07-27T01:03:27.342Z,21.89
2014-07-27T01:04:32.016Z,21.84
2014-07-27T01:05:36.706Z,21.7
2014-07-27T01:06:41.395Z,21.7
2014-07-27T01:07:46.085Z,21.68
2014-07-27T01:08:50.759Z,21.7
2014-07-27T01:09:55.448Z,21.53
2014-07-27T01:11:00.122Z,21.68
2014-07-27T01:12:05.109Z,21.72
2014-07-27T01:13:09.799Z,21.6
2014-07-27T01:14:14.488Z,21.62
2014-07-27T01:15:19.458Z,21.68
2014-07-27T01:16:24.460Z,21.51
2014-07-27T01:17:29.136Z,21.68
2014-07-27T01:18:34.121Z,21.78
2014-07-27T01:19:39.109Z,21.59
2014-07-27T01:20:43.798Z,21.74
2014-07-27T01:21:48.769Z,21.67
2014-07-27T01:22:53.459Z,21.6
2014-07-27T01:23:58.445Z,21.65
2014-07-27T01:25:03.119Z,21.52
2014-07-27T01:26:08.105Z,21.64
2014-07-27T01:27:12.795Z,21.64
2014-07-27T01:28:17.484Z,21.82
2014-07-27T01:29:22.455Z,21.96
2014-07-27T01:30:27.145Z,21.82
2014-07-27T01:31:31.834Z,21.69
2014-07-27T01:32:36.806Z,21.75
2014-07-27T01:33:41.495Z,21.74
2014-07-27T01:34:46.185Z,21.83
2014-07-27T01:35:50.874Z,21.97
2014-07-27T01:36:55.549Z,21.96
2014-07-27T01:38:00.534Z,21.78
2014-07-27T01:39:05.224Z,21.94
2014-07-27T01:40:10.210Z,21.75
2014-07-27T01:41:14.901Z,21.59
2014-07-27T01:42:19.589Z,21.75
2014-07-27T01:43:24.561Z,21.65
2014-07-27T01:44:29.250Z,21.73
2014-07-27T01:45:33.940Z,21.72
2014-07-27T01:46:38.613Z,21.52
2014-07-27T01:47:43.303Z,21.69
2014-07-27T01:48:47.993Z,21.74
2014-07-27T01:49:52.979Z,21.83
2014-07-27T01:50:57.950Z,21.8
2014-07-27T01:52:02.639Z,21.54
2014-07-27T01:53:07.328Z,21.47
2014-07-27T01:54:12.314Z,21.32
2014-07-27T01:55:16.988Z,21.55
2014-07-27T01:56:21.678Z,21.71
2014-07-27T01:57:26.650Z,21.52
2014-07-27T01:58:31.635Z,21.32
2014-07-27T01:59:36.326Z,21.59
2014-07-27T02:00:41.000Z,21.35
2014-07-27T02:01:45.690Z,21.25
2014-07-27T02:02:50.379Z,21.06
2014-07-27T02:03:55.366Z,21.05
2014-07-27T02:05:00.040Z,20.9
2014-07-27T02:06:04.745Z,20.94
2014-07-27T02:07:09.715Z,21.13
2014-07-27T02:08:14.405Z,21.26
2014-07-27T02:09:19.391Z,21.38
2014-07-27T02:10:24.081Z,21.35
2014-07-27T02:11:28.770Z,21.38
2014-07-27T02:12:33.461Z,21.52
2014-07-27T02:13:38.150Z,21.52
2014-07-27T02:14:42.840Z,21.45
2014-07-27T02:15:47.826Z,21.34
2014-07-27T02:16:52.531Z,21.42
2014-07-27T02:17:57.205Z,21.56
2014-07-27T02:19:01.894Z,21.55
2014-07-27T02:20:06.583Z,21.08
2014-07-27T02:21:11.273Z,21.12
2014-07-27T02:22:16.243Z,20.96
2014-07-27T02:23:21.230Z,21.13
2014-07-27T02:24:25.919Z,21.02
2014-07-27T02:25:30.593Z,20.98
2014-07-27T02:26:35.283Z,20.97
2014-07-27T02:27:39.973Z,20.95
2014-07-27T02:28:44.663Z,20.95
2014-07-27T02:29:49.351Z,20.7
2014-07-27T02:30:54.026Z,20.9
2014-07-27T02:31:58.716Z,20.96
2014-07-27T02:33:03.389Z,20.97
2014-07-27T02:34:08.079Z,20.98
2014-07-27T02:35:13.065Z,21.2
2014-07-27T02:36:18.036Z,21.16
2014-07-27T02:37:22.726Z,21.14
2014-07-27T02:38:27.416Z,21.34
2014-07-27T02:39:32.090Z,21.26
2014-07-27T02:40:37.077Z,21.22
2014-07-27T02:41:42.064Z,21.33
2014-07-27T02:42:46.753Z,21.43
2014-07-27T02:43:51.427Z,21.56
2014-07-27T02:44:56.117Z,21.56
2014-07-27T02:46:00.806Z,21.63
2014-07-27T02:47:05.495Z,21.69
2014-07-27T02:48:10.466Z,21.7
2014-07-27T02:49:15.156Z,21.42
2014-07-27T02:50:20.142Z,21.39
2014-07-27T02:51:24.847Z,21.46
2014-07-27T02:52:29.521Z,21.62
2014-07-27T02:53:34.211Z,21.63
2014-07-27T02:54:38.212Z,21.66
2014-07-27T02:55:42.886Z,21.64
2014-07-27T02:56:47.576Z,21.67
2014-07-27T02:57:52.250Z,21.6
2014-07-27T02:58:56.939Z,21.62
2014-07-27T03:00:01.629Z,21.6
2014-07-27T03:01:06.318Z,21.44
2014-07-27T03:02:11.289Z,21.42
2014-07-27T03:03:15.979Z,21.64
2014-07-27T03:04:20.668Z,21.52
2014-07-27T03:05:25.358Z,21.54
2014-07-27T03:06:30.032Z,21.54
2014-07-27T03:07:35.018Z,21.6
2014-07-27T03:08:39.707Z,21.48
2014-07-27T03:09:44.382Z,21.48
2014-07-27T03:10:49.369Z,21.59
2014-07-27T03:11:54.057Z,21.36
2014-07-27T03:12:58.747Z,21.55
2014-07-27T03:14:03.436Z,21.52
2014-07-27T03:15:08.126Z,21.44
2014-07-27T03:16:13.097Z,21.53
2014-07-27T03:17:17.786Z,21.45
2014-07-27T03:18:22.772Z,21.52
2014-07-27T03:19:27.463Z,21.21
2014-07-27T03:20:32.151Z,21.38
2014-07-27T03:21:36.827Z,21.39
2014-07-27T03:22:41.517Z,21.27
2014-07-27T03:23:46.206Z,21.42
2014-07-27T03:24:50.896Z,21.4
2014-07-27T03:25:55.571Z,21.2
2014-07-27T03:27:00.557Z,21.2
2014-07-27T03:28:05.230Z,21.42
2014-07-27T03:29:09.920Z,21.26
2014-07-27T03:30:14.594Z,21.16
2014-07-27T03:31:19.283Z,21.36
2014-07-27T03:32:23.973Z,21.28
2014-07-27T03:33:28.646Z,21.36
2014-07-27T03:34:33.337Z,21.38
2014-07-27T03:35:38.026Z,21.4
2014-07-27T03:36:42.700Z,21.34
2014-07-27T03:37:47.389Z,21.3
2014-07-27T03:38:52.079Z,21.27
2014-07-27T03:39:56.753Z,21.36
2014-07-27T03:41:01.739Z,21.48
2014-07-27T03:42:06.429Z,21.39
2014-07-27T03:43:11.398Z,21.36
2014-07-27T03:44:16.089Z,21.48
2014-07-27T03:45:20.778Z,21.3
2014-07-27T03:46:25.765Z,21.17
2014-07-27T03:47:29.767Z,21.25
2014-07-27T03:48:34.441Z,21.2
2014-07-27T03:49:39.130Z,21.12
2014-07-27T03:50:43.820Z,21.01
2014-07-27T03:51:48.509Z,21.19
2014-07-27T03:52:53.480Z,21.26
2014-07-27T03:53:58.169Z,21.31
2014-07-27T03:55:02.859Z,21.09
2014-07-27T03:56:07.548Z,20.91
2014-07-27T03:57:12.238Z,20.64
2014-07-27T03:58:16.927Z,20.69
2014-07-27T03:59:21.602Z,20.67
2014-07-27T04:00:26.293Z,20.68
2014-07-27T04:01:30.982Z,20.77
2014-07-27T04:02:35.672Z,20.81
2014-07-27T04:03:40.643Z,20.92
2014-07-27T04:04:45.363Z,20.92
2014-07-27T04:05:50.037Z,21.02
2014-07-27T04:06:54.727Z,21.13
2014-07-27T04:07:59.402Z,21.24
2014-07-27T04:09:04.091Z,21.27
2014-07-27T04:10:08.780Z,21.2
2014-07-27T04:11:13.454Z,21.13
2014-07-27T04:12:18.144Z,21.38
2014-07-27T04:13:22.817Z,21.4
2014-07-27T04:14:26.819Z,21.13
2014-07-27T04:15:31.508Z,21
2014-07-27T04:16:36.183Z,21.04
2014-07-27T04:17:40.873Z,21.2
2014-07-27T04:18:45.561Z,21.24
2014-07-27T04:19:50.251Z,21.25
2014-07-27T04:20:54.941Z,21.44
2014-07-27T04:21:59.912Z,21.45
2014-07-27T04:23:04.601Z,21.42
2014-07-27T04:24:09.291Z,21.48
2014-07-27T04:25:13.980Z,21.4
2014-07-27T04:26:18.951Z,21.38
2014-07-27T04:27:23.641Z,21.4
2014-07-27T04:28:28.315Z,21.43
2014-07-27T04:29:33.317Z,21.11
2014-07-27T04:30:38.006Z,21.24
2014-07-27T04:31:42.696Z,21.32
2014-07-27T04:32:47.369Z,21.26
2014-07-27T04:33:52.060Z,21.09
2014-07-27T04:34:57.046Z,20.99
2014-07-27T04:36:01.736Z,20.97
2014-07-27T04:37:06.722Z,21
2014-07-27T04:38:11.395Z,21.15
2014-07-27T04:39:16.381Z,21.34
2014-07-27T04:40:21.071Z,21.5
2014-07-27T04:41:25.745Z,21.5
2014-07-27T04:42:30.733Z,21.52
2014-07-27T04:43:35.728Z,21.55
2014-07-27T04:44:40.457Z,21.59
2014-07-27T04:45:45.171Z,21.5
2014-07-27T04:46:49.899Z,21.38
2014-07-27T04:47:54.613Z,21.5
2014-07-27T04:48:59.635Z,21.56
2014-07-27T04:50:04.324Z,21.68
2014-07-27T04:51:09.027Z,21.8
2014-07-27T04:52:13.716Z,21.68
2014-07-27T04:53:18.419Z,21.68
2014-07-27T04:54:23.419Z,21.75
2014-07-27T04:55:28.105Z,21.8
2014-07-27T04:56:32.800Z,21.84
2014-07-27T04:57:37.792Z,21.74
2014-07-27T04:58:42.783Z,21.76
2014-07-27T04:59:47.756Z,21.85
2014-07-27T05:00:52.446Z,21.9
2014-07-27T05:01:57.138Z,21.95
2014-07-27T05:03:01.829Z,21.94
2014-07-27T05:04:06.818Z,21.97
2014-07-27T05:05:11.507Z,21.92
2014-07-27T05:06:16.197Z,21.92
2014-07-27T05:07:20.886Z,21.78
2014-07-27T05:08:25.577Z,21.68
2014-07-27T05:09:30.268Z,21.89
2014-07-27T05:10:34.959Z,21.94
2014-07-27T05:11:39.648Z,21.87
2014-07-27T05:12:44.322Z,21.76
2014-07-27T05:13:49.309Z,21.83
2014-07-27T05:14:53.998Z,21.77
2014-07-27T05:15:59.000Z,22.02
2014-07-27T05:17:03.689Z,22.03
2014-07-27T05:18:08.676Z,22.13
2014-07-27T05:19:13.350Z,21.96
2014-07-27T05:20:18.336Z,22.06
2014-07-27T05:21:23.025Z,22.01
2014-07-27T05:22:27.699Z,21.95
2014-07-27T05:23:32.389Z,22.08
2014-07-27T05:24:37.063Z,22.25
2014-07-27T05:25:41.752Z,22.06
2014-07-27T05:26:46.739Z,22.16
2014-07-27T05:27:51.725Z,22.35
2014-07-27T05:28:56.399Z,22.43
2014-07-27T05:30:01.088Z,22.41
2014-07-27T05:31:05.780Z,22.26
2014-07-27T05:32:10.453Z,22.34
2014-07-27T05:33:15.440Z,22.54
2014-07-27T05:34:20.130Z,22.37
2014-07-27T05:35:24.803Z,22.34
2014-07-27T05:36:29.790Z,22.52
2014-07-27T05:37:34.479Z,22.6
2014-07-27T05:38:39.450Z,22.54
2014-07-27T05:39:44.140Z,22.64
2014-07-27T05:40:49.126Z,22.87
2014-07-27T05:41:53.815Z,22.8
2014-07-27T05:42:58.505Z,22.8
2014-07-27T05:44:03.194Z,22.95
2014-07-27T05:45:08.165Z,22.82
2014-07-27T05:46:12.855Z,22.7
2014-07-27T05:47:17.544Z,22.93
2014-07-27T05:48:22.234Z,22.96
2014-07-27T05:49:26.923Z,23.04
2014-07-27T05:50:31.613Z,23.03
2014-07-27T05:51:36.301Z,23
2014-07-27T05:52:40.976Z,23.04
2014-07-27T05:53:45.666Z,23.14
2014-07-27T05:54:50.355Z,23.13
2014-07-27T05:55:55.326Z,23.04
2014-07-27T05:57:00.015Z,23.16
2014-07-27T05:58:04.705Z,23.42
2014-07-27T05:59:09.676Z,23.8
2014-07-27T06:00:14.365Z,24.02
2014-07-27T06:01:19.055Z,24.33
2014-07-27T06:02:23.728Z,24.76
2014-07-27T06:03:27.732Z,25.4
2014-07-27T06:04:32.422Z,25.6
2014-07-27T06:05:37.408Z,25.63
2014-07-27T06:06:42.098Z,25.42
2014-07-27T06:07:47.070Z,25.04
2014-07-27T06:08:51.758Z,24.76
2014-07-27T06:09:56.745Z,24.87
2014-07-27T06:11:01.435Z,25.01
2014-07-27T06:12:06.420Z,25.44
2014-07-27T06:13:11.095Z,25.9
2014-07-27T06:14:15.784Z,26.48
2014-07-27T06:15:20.473Z,26.61
2014-07-27T06:16:25.164Z,26.82
2014-07-27T06:17:29.868Z,26.52
2014-07-27T06:18:34.558Z,26.27
2014-07-27T06:19:39.248Z,26.04
2014-07-27T06:20:43.922Z,26.09
2014-07-27T06:21:48.627Z,25.95
2014-07-27T06:22:53.613Z,25.94
2014-07-27T06:23:58.599Z,26.12
2014-07-27T06:25:03.585Z,26.27
2014-07-27T06:26:08.260Z,26.45
2014-07-27T06:27:13.245Z,26.28
2014-07-27T06:28:17.936Z,25.81
2014-07-27T06:29:22.922Z,25.52
2014-07-27T06:30:27.613Z,25.38
2014-07-27T06:31:32.301Z,25.33
2014-07-27T06:32:36.975Z,24.88
2014-07-27T06:33:41.680Z,24.9
2014-07-27T06:34:46.355Z,24.76
2014-07-27T06:35:51.060Z,24.77
2014-07-27T06:36:55.733Z,24.69
2014-07-27T06:38:00.422Z,24.63
2014-07-27T06:39:05.112Z,24.26
2014-07-27T06:40:09.801Z,23.99
2014-07-27T06:41:14.788Z,23.9
2014-07-27T06:42:19.478Z,24.04
2014-07-27T06:43:24.168Z,24.3
2014-07-27T06:44:29.451Z,24.16
2014-07-27T06:45:34.436Z,24.06
2014-07-27T06:46:39.126Z,24.13
2014-07-27T06:47:44.113Z,24.03
2014-07-27T06:48:48.803Z,23.61
2014-07-27T06:49:53.492Z,23.62
2014-07-27T06:50:58.181Z,23.63
2014-07-27T06:52:02.887Z,23.76
2014-07-27T06:53:07.561Z,23.83
2014-07-27T06:54:12.251Z,23.79
2014-07-27T06:55:16.941Z,24.03
2014-07-27T06:56:21.630Z,24.14
2014-07-27T06:57:25.632Z,24.05
2014-07-27T06:58:30.620Z,24.14
2014-07-27T06:59:35.309Z,24.2
2014-07-27T07:00:39.983Z,24.21
2014-07-27T07:01:44.672Z,24.43
2014-07-27T07:02:49.361Z,24.6
2014-07-27T07:03:54.348Z,24.68
2014-07-27T07:04:59.021Z,24.73
2014-07-27T07:06:03.711Z,24.78
2014-07-27T07:07:08.400Z,24.88
2014-07-27T07:08:13.090Z,24.57
2014-07-27T07:09:17.764Z,24.42
2014-07-27T07:10:22.453Z,24.76
2014-07-27T07:11:27.143Z,25.07
2014-07-27T07:12:31.832Z,25.17
2014-07-27T07:13:36.821Z,24.84
2014-07-27T07:14:41.510Z,24.86
2014-07-27T07:15:46.200Z,24.98
2014-07-27T07:16:51.186Z,23.9
2014-07-27T07:17:55.874Z,24.04
2014-07-27T07:19:01.159Z,24.49
2014-07-27T07:20:05.848Z,24.79
2014-07-27T07:21:10.522Z,24.95
2014-07-27T07:22:15.507Z,25.2
2014-07-27T07:23:20.198Z,25.17
2014-07-27T07:24:24.887Z,25.14
2014-07-27T07:25:29.577Z,25.08
2014-07-27T07:26:34.266Z,25.23
2014-07-27T07:27:38.940Z,25.29
2014-07-27T07:28:43.630Z,25.3
2014-07-27T07:29:48.320Z,25.45
2014-07-27T07:30:53.010Z,25.5
2014-07-27T07:31:57.698Z,25.55
2014-07-27T07:33:02.372Z,25.32
2014-07-27T07:34:07.374Z,25.37
2014-07-27T07:35:12.048Z,25.44
2014-07-27T07:36:16.738Z,25.71
2014-07-27T07:37:21.724Z,25.6
2014-07-27T07:38:26.413Z,25.29
2014-07-27T07:39:31.087Z,24.91
2014-07-27T07:40:36.074Z,24.93
2014-07-27T07:41:40.763Z,25.13
2014-07-27T07:42:45.751Z,25.22
2014-07-27T07:43:50.441Z,25.26
2014-07-27T07:44:55.130Z,25.47
2014-07-27T07:46:00.414Z,25.46
2014-07-27T07:47:05.103Z,25.57
2014-07-27T07:48:10.090Z,25.52
2014-07-27T07:49:14.779Z,25.52
2014-07-27T07:50:19.453Z,25.57
2014-07-27T07:51:24.143Z,25.74
2014-07-27T07:52:29.129Z,25.59
2014-07-27T07:53:33.818Z,25.46
2014-07-27T07:54:38.508Z,25.26
2014-07-27T07:55:43.197Z,25.36
2014-07-27T07:56:48.184Z,25.16
2014-07-27T07:57:52.858Z,25.36
2014-07-27T07:58:57.546Z,25.48
2014-07-27T08:00:02.533Z,25.34
2014-07-27T08:01:07.223Z,25.46
2014-07-27T08:02:12.209Z,25.58
2014-07-27T08:03:17.180Z,25.48
2014-07-27T08:04:21.869Z,25.4
2014-07-27T08:05:26.560Z,25.52
2014-07-27T08:06:31.250Z,25.61
2014-07-27T08:07:36.220Z,25.6
2014-07-27T08:08:40.910Z,25.64
2014-07-27T08:09:45.599Z,25.59
2014-07-27T08:10:50.289Z,25.57
2014-07-27T08:11:54.978Z,25.66
2014-07-27T08:12:59.668Z,25.71
2014-07-27T08:14:04.357Z,25.84
2014-07-27T08:15:09.344Z,25.84
2014-07-27T08:16:14.033Z,25.88
2014-07-27T08:17:18.706Z,25.96
2014-07-27T08:18:23.396Z,26.1
2014-07-27T08:19:28.383Z,26.13
2014-07-27T08:20:33.074Z,26.1
2014-07-27T08:21:37.764Z,26.24
2014-07-27T08:22:42.750Z,26.17
2014-07-27T08:23:47.423Z,26.11
2014-07-27T08:24:52.113Z,26.1
2014-07-27T08:25:57.099Z,26.12
2014-07-27T08:27:02.086Z,26.29
2014-07-27T08:28:06.775Z,26.39
2014-07-27T08:29:11.465Z,26.29
2014-07-27T08:30:16.451Z,26.53
2014-07-27T08:31:21.437Z,26.64
2014-07-27T08:32:26.127Z,26.68
2014-07-27T08:33:30.816Z,26.52
2014-07-27T08:34:34.818Z,26.27
2014-07-27T08:35:39.507Z,26.6
2014-07-27T08:36:44.495Z,26.74
2014-07-27T08:37:49.186Z,26.86
2014-07-27T08:38:53.874Z,26.77
2014-07-27T08:39:58.861Z,26.72
2014-07-27T08:41:03.534Z,26.74
2014-07-27T08:42:08.224Z,26.71
2014-07-27T08:43:12.913Z,26.78
2014-07-27T08:44:17.900Z,27.08
2014-07-27T08:45:22.589Z,27.33
2014-07-27T08:46:27.279Z,27.51
2014-07-27T08:47:32.265Z,27.57
2014-07-27T08:48:36.955Z,27.58
2014-07-27T08:49:41.644Z,27.44
2014-07-27T08:50:46.631Z,27.51
2014-07-27T08:51:51.320Z,27.45
2014-07-27T08:52:56.010Z,27.53
2014-07-27T08:54:00.996Z,27.41
2014-07-27T08:55:06.000Z,27.45
2014-07-27T08:56:10.688Z,27.64
2014-07-27T08:57:15.378Z,27.61
2014-07-27T08:58:20.068Z,27.56
2014-07-27T08:59:24.742Z,27.54
2014-07-27T09:00:29.431Z,27.72
2014-07-27T09:01:34.418Z,27.85
2014-07-27T09:02:39.107Z,27.96
2014-07-27T09:03:43.796Z,28.09
2014-07-27T09:04:48.798Z,27.88
2014-07-27T09:05:53.488Z,27.88
2014-07-27T09:06:58.177Z,27.88
2014-07-27T09:08:02.867Z,27.93
2014-07-27T09:09:07.557Z,27.89
2014-07-27T09:10:12.246Z,27.63
2014-07-27T09:11:16.936Z,27.94
2014-07-27T09:12:21.625Z,28.11
2014-07-27T09:13:26.314Z,28.16
2014-07-27T09:14:31.006Z,28.2
2014-07-27T09:15:35.695Z,28.12
2014-07-27T09:16:40.369Z,28.26
2014-07-27T09:17:45.059Z,28.02
2014-07-27T09:18:50.044Z,27.78
2014-07-27T09:19:54.733Z,27.78
2014-07-27T09:20:59.424Z,28.01
2014-07-27T09:22:04.113Z,28.11
2014-07-27T09:23:08.802Z,27.96
2014-07-27T09:24:13.508Z,27.92
2014-07-27T09:25:18.197Z,28.01
2014-07-27T09:26:22.887Z,28.11
2014-07-27T09:27:27.577Z,27.88
2014-07-27T09:28:32.266Z,28.08
2014-07-27T09:29:37.268Z,28.24
2014-07-27T09:30:41.957Z,28.24
2014-07-27T09:31:46.647Z,28.16
2014-07-27T09:32:51.337Z,27.88
2014-07-27T09:33:56.026Z,27.72
2014-07-27T09:35:00.716Z,27.97
2014-07-27T09:36:05.405Z,28.02
2014-07-27T09:37:10.095Z,28.01
2014-07-27T09:38:14.784Z,27.9
2014-07-27T09:39:19.474Z,27.97
2014-07-27T09:40:24.460Z,27.97
2014-07-27T09:41:29.136Z,27.87
2014-07-27T09:42:34.121Z,27.84
2014-07-27T09:43:38.812Z,27.97
2014-07-27T09:44:43.501Z,27.9
2014-07-27T09:45:48.191Z,27.76
2014-07-27T09:46:52.192Z,27.77
2014-07-27T09:47:57.179Z,27.9
2014-07-27T09:49:01.869Z,27.88
2014-07-27T09:50:06.558Z,27.88
2014-07-27T09:51:11.248Z,27.9
2014-07-27T09:52:16.234Z,27.99
2014-07-27T09:53:20.923Z,28.1
2014-07-27T09:54:25.597Z,27.94
2014-07-27T09:55:30.288Z,28
2014-07-27T09:56:34.976Z,27.63
2014-07-27T09:57:39.667Z,27.88
2014-07-27T09:58:44.356Z,27.85
2014-07-27T09:59:49.045Z,28.12
2014-07-27T10:00:54.031Z,28.32
2014-07-27T10:01:58.752Z,28.19
2014-07-27T10:03:03.457Z,28.44
2014-07-27T10:04:08.147Z,28.1
2014-07-27T10:05:12.836Z,28.28
2014-07-27T10:06:17.526Z,28.34
2014-07-27T10:07:22.216Z,28.35
2014-07-27T10:08:26.905Z,28.47
2014-07-27T10:09:31.578Z,28.56
2014-07-27T10:10:36.565Z,28.32
2014-07-27T10:11:41.254Z,28.33
2014-07-27T10:12:45.960Z,28.49
2014-07-27T10:13:50.649Z,28.57
2014-07-27T10:14:55.339Z,28.6
2014-07-27T10:16:00.029Z,28.5
2014-07-27T10:17:05.015Z,28.86
2014-07-27T10:18:09.705Z,28.86
2014-07-27T10:19:14.394Z,28.89
2014-07-27T10:20:19.084Z,28.81
2014-07-27T10:21:23.789Z,28.68
2014-07-27T10:22:28.776Z,28.64
2014-07-27T10:23:33.466Z,29.04
2014-07-27T10:24:38.452Z,29.06
2014-07-27T10:25:43.142Z,28.76
2014-07-27T10:26:47.816Z,28.8
2014-07-27T10:27:52.802Z,28.86
2014-07-27T10:28:57.507Z,29.09
2014-07-27T10:30:02.197Z,28.9
2014-07-27T10:31:06.886Z,28.87
2014-07-27T10:32:11.577Z,28.83
2014-07-27T10:33:16.265Z,28.88
2014-07-27T10:34:20.564Z,28.9
2014-07-27T10:35:25.551Z,28.96
2014-07-27T10:36:30.240Z,28.96
2014-07-27T10:37:34.930Z,29.02
2014-07-27T10:38:39.620Z,29.02
2014-07-27T10:39:44.309Z,28.91
2014-07-27T10:40:48.998Z,28.92
2014-07-27T10:41:53.984Z,28.73
2014-07-27T10:42:58.675Z,28.53
2014-07-27T10:44:03.364Z,28.44
2014-07-27T10:45:08.054Z,28.44
2014-07-27T10:46:12.743Z,28.5
2014-07-27T10:47:17.432Z,28.62
2014-07-27T10:48:22.121Z,28.43
2014-07-27T10:49:26.811Z,28.22
2014-07-27T10:50:31.502Z,28.35
2014-07-27T10:51:36.192Z,28.55
2014-07-27T10:52:40.881Z,28.45
2014-07-27T10:53:45.571Z,28.35
2014-07-27T10:54:50.260Z,28.41
2014-07-27T10:55:54.950Z,28.37
2014-07-27T10:56:59.639Z,28.59
2014-07-27T10:58:04.329Z,28.62
2014-07-27T10:59:09.003Z,28.66
2014-07-27T11:00:13.691Z,28.66
2014-07-27T11:01:18.382Z,28.57
2014-07-27T11:02:23.071Z,28.72
2014-07-27T11:03:27.776Z,28.33
2014-07-27T11:04:32.466Z,28.37
2014-07-27T11:05:37.155Z,28.53
2014-07-27T11:06:41.845Z,28.37
2014-07-27T11:07:46.878Z,28.26
2014-07-27T11:08:51.583Z,28.41
2014-07-27T11:09:56.569Z,28.43
2014-07-27T11:11:01.259Z,28.62
2014-07-27T11:12:05.948Z,28.37
2014-07-27T11:13:10.638Z,28.3
2014-07-27T11:14:15.327Z,28.44
2014-07-27T11:15:20.017Z,28.47
2014-07-27T11:16:24.707Z,28.24
2014-07-27T11:17:29.398Z,28.25
2014-07-27T11:18:34.384Z,28.34
2014-07-27T11:19:39.074Z,28.29
2014-07-27T11:20:43.763Z,28.46
2014-07-27T11:21:48.453Z,28.29
2014-07-27T11:22:53.439Z,28.12
2014-07-27T11:23:58.129Z,28.24
2014-07-27T11:25:02.818Z,28.35
2014-07-27T11:26:07.806Z,28.53
2014-07-27T11:27:12.791Z,28.55
2014-07-27T11:28:16.793Z,28.56
2014-07-27T11:29:21.483Z,28.61
2014-07-27T11:30:26.469Z,28.72
2014-07-27T11:31:31.158Z,28.7
2014-07-27T11:32:35.848Z,28.83
2014-07-27T11:33:40.538Z,28.8
2014-07-27T11:34:45.228Z,28.92
2014-07-27T11:35:49.916Z,28.98
2014-07-27T11:36:54.607Z,28.9
2014-07-27T11:37:59.281Z,28.91
2014-07-27T11:39:03.970Z,28.65
2014-07-27T11:40:08.675Z,28.8
2014-07-27T11:41:13.662Z,28.67
2014-07-27T11:42:18.647Z,28.78
2014-07-27T11:43:22.649Z,28.92
2014-07-27T11:44:27.341Z,28.83
2014-07-27T11:45:32.030Z,28.95
2014-07-27T11:46:36.720Z,29.24
2014-07-27T11:47:41.425Z,29.28
2014-07-27T11:48:46.114Z,29.38
2014-07-27T11:49:50.804Z,29.57
2014-07-27T11:50:55.509Z,29.42
2014-07-27T11:52:00.495Z,29.48
2014-07-27T11:53:05.200Z,29.53
2014-07-27T11:54:10.187Z,29.67
2014-07-27T11:55:15.172Z,29.84
2014-07-27T11:56:19.862Z,29.87
2014-07-27T11:57:24.848Z,29.75
2014-07-27T11:58:29.539Z,29.74
2014-07-27T11:59:34.229Z,29.51
2014-07-27T12:00:38.918Z,29.54
2014-07-27T12:01:43.608Z,29.69
2014-07-27T12:02:48.297Z,29.78
2014-07-27T12:03:52.987Z,29.73
2014-07-27T12:04:57.676Z,29.82
2014-07-27T12:06:02.382Z,29.97
2014-07-27T12:07:07.071Z,30.07
2014-07-27T12:08:11.761Z,29.98
2014-07-27T12:09:16.450Z,29.72
2014-07-27T12:10:21.140Z,29.62
2014-07-27T12:11:25.829Z,29.58
2014-07-27T12:12:30.519Z,29.67
2014-07-27T12:13:35.208Z,29.84
2014-07-27T12:14:40.195Z,29.7
2014-07-27T12:15:44.884Z,29.88
2014-07-27T12:16:49.870Z,29.88
2014-07-27T12:17:54.561Z,29.5
2014-07-27T12:18:59.547Z,29.47
2014-07-27T12:20:04.533Z,29.9
2014-07-27T12:21:09.222Z,30.04
2014-07-27T12:22:14.208Z,29.98
2014-07-27T12:23:18.898Z,30
2014-07-27T12:24:23.884Z,30.08
2014-07-27T12:25:28.576Z,30.12
2014-07-27T12:26:33.562Z,30.15
2014-07-27T12:27:38.252Z,30.16
2014-07-27T12:28:42.941Z,30.17
2014-07-27T12:29:47.943Z,30.31
2014-07-27T12:30:52.632Z,29.98
2014-07-27T12:31:57.321Z,30.13
2014-07-27T12:33:02.011Z,30.27
2014-07-27T12:34:06.700Z,30.08
2014-07-27T12:35:11.390Z,30.31
2014-07-27T12:36:16.079Z,30.21
2014-07-27T12:37:20.769Z,30.03
2014-07-27T12:38:25.458Z,30.05
2014-07-27T12:39:30.445Z,30.16
2014-07-27T12:40:35.135Z,30.25
2014-07-27T12:41:39.824Z,30.41
2014-07-27T12:42:44.513Z,30.16
2014-07-27T12:43:49.203Z,30.08
2014-07-27T12:44:53.892Z,30.09
2014-07-27T12:45:58.582Z,29.9
2014-07-27T12:47:03.271Z,29.81
2014-07-27T12:48:07.962Z,29.95
2014-07-27T12:49:12.667Z,30.11
2014-07-27T12:50:17.356Z,30.3
2014-07-27T12:51:22.045Z,30.43
2014-07-27T12:52:26.719Z,30.52
2014-07-27T12:53:31.426Z,30.43
2014-07-27T12:54:36.115Z,29.96
2014-07-27T12:55:40.805Z,30.21
2014-07-27T12:56:45.510Z,30.21
2014-07-27T12:57:50.497Z,30.02
2014-07-27T12:58:55.186Z,30.08
2014-07-27T12:59:59.875Z,30.2
2014-07-27T13:01:04.565Z,29.97
2014-07-27T13:02:09.254Z,30.13
2014-07-27T13:03:13.944Z,30.3
2014-07-27T13:04:18.634Z,30.36
2014-07-27T13:05:23.621Z,30.24
2014-07-27T13:06:28.310Z,30.23
2014-07-27T13:07:33.000Z,30.39
2014-07-27T13:08:37.688Z,30.5
2014-07-27T13:09:42.379Z,30.53
2014-07-27T13:10:47.068Z,30.4
2014-07-27T13:11:51.758Z,30.44
2014-07-27T13:12:56.447Z,30.24
2014-07-27T13:14:01.137Z,30.07
2014-07-27T13:15:05.826Z,30.45
2014-07-27T13:16:10.547Z,30.61
2014-07-27T13:17:14.549Z,30.6
2014-07-27T13:18:19.238Z,30.43
2014-07-27T13:19:23.256Z,30.24
2014-07-27T13:20:27.945Z,30.41
2014-07-27T13:21:32.635Z,30.38
2014-07-27T13:22:37.325Z,30.13
2014-07-27T13:23:42.014Z,30.17
2014-07-27T13:24:47.001Z,30.18
2014-07-27T13:25:51.690Z,29.96
2014-07-27T13:26:56.380Z,29.95
2014-07-27T13:28:01.070Z,29.58
2014-07-27T13:29:05.759Z,29.62
2014-07-27T13:30:10.464Z,29.75
2014-07-27T13:31:15.154Z,29.74
2014-07-27T13:32:19.842Z,29.58
2014-07-27T13:33:24.532Z,29.6
2014-07-27T13:34:29.223Z,29.5
2014-07-27T13:35:34.210Z,29.35
2014-07-27T13:36:39.196Z,29.4
2014-07-27T13:37:43.886Z,29.15
2014-07-27T13:38:48.575Z,29.31
2014-07-27T13:39:53.562Z,29.44
2014-07-27T13:40:58.548Z,29.36
2014-07-27T13:42:03.236Z,29.3
2014-07-27T13:43:08.238Z,29.52
2014-07-27T13:44:12.928Z,29.54
2014-07-27T13:45:17.617Z,29.46
2014-07-27T13:46:22.291Z,29.52
2014-07-27T13:47:26.982Z,29.77
2014-07-27T13:48:31.686Z,29.76
2014-07-27T13:49:36.376Z,29.79
2014-07-27T13:50:41.095Z,29.68
2014-07-27T13:51:46.125Z,29.69
2014-07-27T13:52:51.153Z,29.7
2014-07-27T13:53:55.888Z,29.66
2014-07-27T13:55:00.618Z,29.85
2014-07-27T13:56:05.622Z,29.98
2014-07-27T13:57:10.326Z,29.98
2014-07-27T13:58:15.029Z,29.98